createdAt,value
2022-08-25T00:01:37.771Z,99298.09
2022-08-25T00:04:07.302Z,99294.09
2022-08-25T00:06:33.990Z,99297.06
2022-08-25T00:09:00.479Z,99300.75
2022-08-25T00:11:30.086Z,99293.19
2022-08-25T00:13:59.316Z,99291.88
2022-08-25T00:16:26.579Z,99296.69
2022-08-25T00:18:58.172Z,99297.22
2022-08-25T00:21:25.601Z,99301.88
2022-08-25T00:23:52.013Z,99297.72
2022-08-25T00:26:18.784Z,99297.19
2022-08-25T00:28:45.539Z,99304.06
2022-08-25T00:31:18.306Z,99298.19
2022-08-25T00:33:46.066Z,99297.84
2022-08-25T00:36:12.547Z,99289.28
2022-08-25T00:38:40.078Z,99289.63
2022-08-25T00:41:07.248Z,99292.97
2022-08-25T00:43:38.079Z,99286.91
2022-08-25T00:46:04.816Z,99282.72
2022-08-25T00:48:31.334Z,99285.56
2022-08-25T00:50:57.960Z,99288.72
2022-08-25T00:53:24.547Z,99291.91
2022-08-25T00:55:51.063Z,99288.03
2022-08-25T00:58:21.978Z,99294.53
2022-08-25T01:00:49.756Z,99295.88
2022-08-25T01:03:18.364Z,99291.84
2022-08-25T01:05:45.606Z,99293.00
2022-08-25T01:08:13.150Z,99290.81
2022-08-25T01:10:44.425Z,99289.13
2022-08-25T01:13:18.218Z,99291.97
2022-08-25T01:15:46.216Z,99291.81
2022-08-25T01:18:12.851Z,99291.47
2022-08-25T01:20:39.551Z,99291.47
2022-08-25T01:23:06.019Z,99291.72
2022-08-25T01:25:51.638Z,99287.72
2022-08-25T01:28:18.736Z,99293.91
2022-08-25T01:30:45.261Z,99283.34
2022-08-25T01:33:12.294Z,99287.00
2022-08-25T01:35:39.438Z,99289.84
2022-08-25T01:38:07.079Z,99283.16
2022-08-25T01:40:34.698Z,99286.16
2022-08-25T01:43:07.559Z,99286.47
2022-08-25T01:45:35.081Z,99280.25
2022-08-25T01:48:01.730Z,99284.94
2022-08-25T01:50:28.276Z,99279.06
2022-08-25T01:52:58.576Z,99281.22
2022-08-25T01:55:25.338Z,99271.81
2022-08-25T01:57:52.019Z,99270.47
2022-08-25T02:00:19.618Z,99272.47
2022-08-25T02:02:46.312Z,99273.44
2022-08-25T02:05:23.221Z,99271.81
2022-08-25T02:07:50.028Z,99267.59
2022-08-25T02:10:16.472Z,99272.25
2022-08-25T02:12:42.911Z,99269.91
2022-08-25T02:15:09.625Z,99267.38
2022-08-25T02:17:36.968Z,99268.53
2022-08-25T02:20:08.543Z,99268.72
2022-08-25T02:22:34.957Z,99271.69
2022-08-25T02:25:01.611Z,99264.66
2022-08-25T02:27:28.368Z,99274.69
2022-08-25T02:29:54.857Z,99275.00
2022-08-25T02:32:21.287Z,99266.59
2022-08-25T02:34:48.553Z,99265.75
2022-08-25T02:37:15.187Z,99270.59
2022-08-25T02:39:41.640Z,99269.91
2022-08-25T02:42:08.114Z,99265.69
2022-08-25T02:44:34.593Z,99271.03
2022-08-25T02:47:01.027Z,99267.84
2022-08-25T02:49:27.879Z,99262.66
2022-08-25T02:51:54.577Z,99265.47
2022-08-25T02:54:21.111Z,99265.94
2022-08-25T02:56:48.563Z,99258.91
2022-08-25T02:59:15.119Z,99260.94
2022-08-25T03:01:41.629Z,99265.56
2022-08-25T03:04:08.136Z,99257.00
2022-08-25T03:06:34.586Z,99260.69
2022-08-25T03:09:01.560Z,99271.69
2022-08-25T03:11:28.144Z,99267.66
2022-08-25T03:13:54.747Z,99263.31
2022-08-25T03:16:21.229Z,99265.13
2022-08-25T03:18:48.367Z,99261.72
2022-08-25T03:21:15.827Z,99258.41
2022-08-25T03:23:43.558Z,99260.53
2022-08-25T03:26:28.611Z,99256.16
2022-08-25T03:28:55.503Z,99264.88
2022-08-25T03:31:22.781Z,99263.66
2022-08-25T03:33:49.439Z,99265.13
2022-08-25T03:36:15.947Z,99263.72
2022-08-25T03:38:42.618Z,99262.72
2022-08-25T03:41:16.721Z,99256.03
2022-08-25T03:43:43.591Z,99256.19
2022-08-25T03:46:16.231Z,99249.00
2022-08-25T03:48:43.001Z,99259.00
2022-08-25T03:51:09.548Z,99252.13
2022-08-25T03:53:36.026Z,99259.31
2022-08-25T03:56:02.585Z,99262.28
2022-08-25T03:58:29.012Z,99257.94
2022-08-25T04:00:56.819Z,99261.59
2022-08-25T04:03:23.310Z,99254.56
2022-08-25T04:05:49.793Z,99259.22
2022-08-25T04:08:16.323Z,99254.88
2022-08-25T04:10:45.577Z,99261.91
2022-08-25T04:13:12.337Z,99253.75
2022-08-25T04:15:42.180Z,99259.91
2022-08-25T04:18:08.627Z,99248.84
2022-08-25T04:20:35.108Z,99241.97
2022-08-25T04:23:01.634Z,99240.16
2022-08-25T04:25:28.126Z,99239.44
2022-08-25T04:27:55.322Z,99241.44
2022-08-25T04:30:22.057Z,99241.44
2022-08-25T04:32:48.675Z,99239.06
2022-08-25T04:35:15.638Z,99238.38
2022-08-25T04:37:42.083Z,99239.53
2022-08-25T04:40:09.596Z,99242.66
2022-08-25T04:42:36.086Z,99247.31
2022-08-25T04:45:04.058Z,99246.31
2022-08-25T04:47:31.379Z,99248.66
2022-08-25T04:49:57.846Z,99260.34
2022-08-25T04:52:24.285Z,99254.19
2022-08-25T04:54:50.701Z,99251.34
2022-08-25T04:57:17.142Z,99253.72
2022-08-25T04:59:43.572Z,99259.75
2022-08-25T05:02:10.324Z,99258.09
2022-08-25T05:04:37.426Z,99261.44
2022-08-25T05:07:04.845Z,99267.19
2022-08-25T05:09:32.676Z,99262.22
2022-08-25T05:11:59.835Z,99264.28
2022-08-25T05:14:26.788Z,99263.28
2022-08-25T05:16:53.789Z,99265.78
2022-08-25T05:19:20.226Z,99263.19
2022-08-25T05:21:47.172Z,99258.38
2022-08-25T05:24:13.687Z,99263.09
2022-08-25T05:26:40.157Z,99261.50
2022-08-25T05:29:07.375Z,99250.66
2022-08-25T05:31:36.341Z,99245.88
2022-08-25T05:34:05.875Z,99243.84
2022-08-25T05:36:33.353Z,99241.34
2022-08-25T05:39:00.227Z,99243.59
2022-08-25T05:41:28.710Z,99246.63
2022-08-25T05:43:55.268Z,99250.53
2022-08-25T05:46:22.339Z,99256.25
2022-08-25T05:48:49.228Z,99259.13
2022-08-25T05:51:16.556Z,99252.31
2022-08-25T05:53:44.364Z,99234.28
2022-08-25T05:56:11.220Z,99234.66
2022-08-25T05:58:37.916Z,99236.38
2022-08-25T06:01:23.358Z,99239.94
2022-08-25T06:03:53.409Z,99236.47
2022-08-25T06:06:20.571Z,99239.50
2022-08-25T06:08:47.007Z,99245.91
2022-08-25T06:11:14.249Z,99239.59
2022-08-25T06:13:40.679Z,99239.81
2022-08-25T06:16:07.281Z,99238.31
2022-08-25T06:18:33.831Z,99236.66
2022-08-25T06:21:07.088Z,99236.56
2022-08-25T06:23:33.510Z,99234.91
2022-08-25T06:26:00.038Z,99227.75
2022-08-25T06:28:26.444Z,99223.06
2022-08-25T06:30:57.954Z,99234.31
2022-08-25T06:33:24.431Z,99224.94
2022-08-25T06:35:53.368Z,99223.97
2022-08-25T06:38:19.786Z,99217.91
2022-08-25T06:40:47.484Z,99217.25
2022-08-25T06:43:13.995Z,99208.56
2022-08-25T06:45:40.444Z,99215.56
2022-08-25T06:48:06.993Z,99209.81
2022-08-25T06:50:33.580Z,99213.09
2022-08-25T06:53:00.015Z,99215.00
2022-08-25T06:55:26.492Z,99208.59
2022-08-25T06:57:54.161Z,99214.22
2022-08-25T07:00:22.103Z,99205.69
2022-08-25T07:02:57.043Z,99201.66
2022-08-25T07:05:33.521Z,99198.16
2022-08-25T07:08:07.251Z,99197.41
2022-08-25T07:10:33.739Z,99185.78
2022-08-25T07:13:01.435Z,99188.34
2022-08-25T07:15:27.895Z,99176.09
2022-08-25T07:17:54.387Z,99177.84
2022-08-25T07:20:20.893Z,99171.03
2022-08-25T07:22:48.148Z,99174.88
2022-08-25T07:25:14.581Z,99164.56
2022-08-25T07:27:44.196Z,99166.75
2022-08-25T07:32:57.289Z,99168.97
2022-08-25T07:35:26.300Z,99162.34
2022-08-25T07:37:58.936Z,99162.41
2022-08-25T07:40:27.342Z,99167.19
2022-08-25T07:42:55.482Z,99164.50
2022-08-25T07:45:29.645Z,99161.59
2022-08-25T07:48:06.844Z,99164.69
2022-08-25T07:50:33.883Z,99167.81
2022-08-25T07:53:00.699Z,99164.47
2022-08-25T07:55:28.094Z,99176.38
2022-08-25T07:58:02.583Z,99169.50
2022-08-25T08:00:30.917Z,99161.97
2022-08-25T08:02:57.604Z,99155.28
2022-08-25T08:05:24.641Z,99161.97
2022-08-25T08:07:51.663Z,99157.75
2022-08-25T08:10:53.986Z,99157.53
2022-08-25T08:13:07.125Z,99162.34
2022-08-25T08:15:34.393Z,99157.31
2022-08-25T08:18:00.861Z,99158.50
2022-08-25T08:20:27.414Z,99162.22
2022-08-25T08:22:55.073Z,99166.53
2022-08-25T08:25:27.449Z,99161.69
2022-08-25T08:27:55.979Z,99164.19
2022-08-25T08:30:25.946Z,99167.34
2022-08-25T08:33:09.142Z,99165.88
2022-08-25T08:35:36.533Z,99156.50
2022-08-25T08:38:03.090Z,99156.88
2022-08-25T08:40:31.125Z,99153.47
2022-08-25T08:42:58.072Z,99146.84
2022-08-25T08:45:40.110Z,99153.34
2022-08-25T08:48:19.288Z,99156.19
2022-08-25T08:50:54.774Z,99148.09
2022-08-25T08:53:24.015Z,99150.63
2022-08-25T08:55:58.310Z,99155.03
2022-08-25T08:58:28.695Z,99153.31
2022-08-25T09:00:58.237Z,99143.09
2022-08-25T09:04:03.129Z,99154.53
2022-08-25T09:06:33.041Z,99151.41
2022-08-25T09:09:02.174Z,99144.94
2022-08-25T09:11:28.579Z,99154.66
2022-08-25T09:14:10.556Z,99147.56
2022-08-25T09:16:57.354Z,99151.56
2022-08-25T09:19:42.435Z,99149.69
2022-08-25T09:22:35.116Z,99148.81
2022-08-25T09:25:08.951Z,99154.16
2022-08-25T09:27:41.150Z,99142.00
2022-08-25T09:30:10.011Z,99135.75
2022-08-25T09:32:42.553Z,99143.63
2022-08-25T09:35:19.677Z,99141.78
2022-08-25T09:38:15.555Z,99128.81
2022-08-25T09:40:44.699Z,99131.28
2022-08-25T09:43:32.396Z,99123.81
2022-08-25T09:46:02.387Z,99125.16
2022-08-25T09:48:40.598Z,99122.16
2022-08-25T09:51:19.086Z,99113.38
2022-08-25T09:53:51.042Z,99120.94
2022-08-25T09:56:19.390Z,99113.78
2022-08-25T09:58:45.793Z,99110.47
2022-08-25T10:01:17.147Z,99109.56
2022-08-25T10:03:54.311Z,99101.63
2022-08-25T10:06:21.927Z,99097.34
2022-08-25T10:08:48.376Z,99087.69
2022-08-25T10:11:29.113Z,99088.34
2022-08-25T10:14:21.933Z,99081.19
2022-08-25T10:16:49.264Z,99070.47
2022-08-25T10:19:22.078Z,99074.00
2022-08-25T10:22:02.157Z,99078.09
2022-08-25T10:24:29.043Z,99064.78
2022-08-25T10:27:04.641Z,99057.53
2022-08-25T10:29:49.983Z,99042.44
2022-08-25T10:32:36.703Z,99048.13
2022-08-25T10:35:09.616Z,99036.19
2022-08-25T10:37:50.740Z,99034.75
2022-08-25T10:40:38.977Z,99031.81
2022-08-25T10:43:07.577Z,99029.94
2022-08-25T10:45:44.137Z,99027.94
2022-08-25T10:48:19.996Z,99019.94
2022-08-25T10:50:52.731Z,99016.41
2022-08-25T10:53:34.613Z,99018.91
2022-08-25T10:56:12.228Z,99020.88
2022-08-25T10:58:41.731Z,99011.31
2022-08-25T11:01:17.467Z,98999.38
2022-08-25T11:03:50.031Z,98996.41
2022-08-25T11:06:23.630Z,98997.84
2022-08-25T11:09:04.309Z,98994.59
2022-08-25T11:11:36.399Z,98985.25
2022-08-25T11:14:09.201Z,98983.63
2022-08-25T11:16:39.026Z,98982.50
2022-08-25T11:19:09.284Z,98976.34
2022-08-25T11:22:14.575Z,98964.63
2022-08-25T11:24:57.321Z,98973.97
2022-08-25T11:27:28.398Z,98966.50
2022-08-25T11:29:59.937Z,98960.94
2022-08-25T11:32:27.438Z,98953.31
2022-08-25T11:34:54.150Z,98943.56
2022-08-25T11:37:25.495Z,98950.50
2022-08-25T11:40:01.134Z,98955.25
2022-08-25T11:42:27.792Z,98947.03
2022-08-25T11:44:54.943Z,98942.91
2022-08-25T11:47:21.833Z,98945.94
2022-08-25T11:49:54.268Z,98947.91
2022-08-25T11:52:32.666Z,98941.91
2022-08-25T11:55:17.859Z,98931.41
2022-08-25T11:57:53.459Z,98931.88
2022-08-25T12:00:39.211Z,98930.84
2022-08-25T12:03:25.992Z,98934.34
2022-08-25T12:06:12.923Z,98935.56
2022-08-25T12:08:51.636Z,98926.09
2022-08-25T12:11:36.969Z,98929.25
2022-08-25T12:14:14.218Z,98932.63
2022-08-25T12:17:00.565Z,98916.00
2022-08-25T12:19:30.008Z,98919.16
2022-08-25T12:22:03.697Z,98917.19
2022-08-25T12:24:48.206Z,98908.03
2022-08-25T12:27:20.842Z,98912.03
2022-08-25T12:30:07.882Z,98906.94
2022-08-25T12:32:41.545Z,98905.34
2022-08-25T12:35:26.232Z,98901.41
2022-08-25T12:38:05.037Z,98905.50
2022-08-25T12:40:43.979Z,98904.31
2022-08-25T12:43:11.897Z,98896.97
2022-08-25T12:45:44.244Z,98887.25
2022-08-25T12:48:27.410Z,98897.41
2022-08-25T12:51:08.362Z,98889.69
2022-08-25T12:53:37.871Z,98890.72
2022-08-25T12:56:24.576Z,98890.19
2022-08-25T12:59:03.433Z,98888.72
2022-08-25T13:01:48.474Z,98885.69
2022-08-25T13:04:16.329Z,98878.22
2022-08-25T13:06:43.279Z,98871.31
2022-08-25T13:09:24.983Z,98867.31
2022-08-25T13:11:56.500Z,98878.81
2022-08-25T13:14:29.119Z,98869.25
2022-08-25T13:16:56.536Z,98876.72
2022-08-25T13:19:23.721Z,98866.50
2022-08-25T13:21:50.446Z,98856.00
2022-08-25T13:24:40.184Z,98865.25
2022-08-25T13:27:09.494Z,98852.81
2022-08-25T13:29:48.710Z,98848.63
2022-08-25T13:32:17.593Z,98846.38
2022-08-25T13:34:44.237Z,98846.09
2022-08-25T13:37:31.437Z,98846.53
2022-08-25T13:40:17.855Z,98852.78
2022-08-25T13:42:50.888Z,98862.53
2022-08-25T13:45:22.684Z,98851.03
2022-08-25T13:47:55.718Z,98853.22
2022-08-25T13:50:26.828Z,98841.31
2022-08-25T13:52:55.299Z,98842.63
2022-08-25T13:55:50.568Z,98843.88
2022-08-25T13:58:24.599Z,98841.66
2022-08-25T14:01:19.926Z,98841.59
2022-08-25T14:03:53.908Z,98837.41
2022-08-25T14:06:23.668Z,98829.56
2022-08-25T14:08:59.342Z,98832.56
2022-08-25T14:11:25.871Z,98826.28
2022-08-25T14:14:00.411Z,98828.13
2022-08-25T14:16:33.275Z,98810.06
2022-08-25T14:19:01.871Z,98813.31
2022-08-25T14:21:30.722Z,98809.44
2022-08-25T14:23:57.603Z,98810.06
2022-08-25T14:26:24.727Z,98806.66
2022-08-25T14:28:53.394Z,98797.44
2022-08-25T14:31:30.962Z,98806.25
2022-08-25T14:33:59.673Z,98805.25
2022-08-25T14:36:26.535Z,98801.16
2022-08-25T14:38:56.406Z,98809.84
2022-08-25T14:41:24.034Z,98805.41
2022-08-25T14:43:51.042Z,98804.72
2022-08-25T14:46:25.739Z,98807.94
2022-08-25T14:48:55.464Z,98794.00
2022-08-25T14:51:23.605Z,98791.78
2022-08-25T14:53:52.780Z,98786.44
2022-08-25T14:56:19.692Z,98787.59
2022-08-25T14:58:50.957Z,98785.31
2022-08-25T15:01:28.541Z,98782.50
2022-08-25T15:03:58.759Z,98780.56
2022-08-25T15:06:25.418Z,98790.66
2022-08-25T15:09:10.689Z,98787.03
2022-08-25T15:11:41.549Z,98784.66
2022-08-25T15:14:10.763Z,98787.63
2022-08-25T15:16:40.183Z,98790.38
2022-08-25T15:19:09.915Z,98785.44
2022-08-25T15:21:37.186Z,98789.84
2022-08-25T15:24:05.767Z,98777.88
2022-08-25T15:26:36.127Z,98773.34
2022-08-25T15:29:03.871Z,98771.06
2022-08-25T15:31:31.331Z,98772.75
2022-08-25T15:33:59.400Z,98775.00
2022-08-25T15:36:26.436Z,98776.03
2022-08-25T15:38:53.496Z,98768.09
2022-08-25T15:41:21.840Z,98769.41
2022-08-25T15:43:53.706Z,98768.34
2022-08-25T15:46:21.845Z,98767.56
2022-08-25T15:48:48.366Z,98761.69
2022-08-25T15:51:16.135Z,98762.91
2022-08-25T15:53:42.870Z,98760.25
2022-08-25T15:56:09.956Z,98754.66
2022-08-25T15:58:37.035Z,98751.38
2022-08-25T16:01:17.411Z,98752.34
2022-08-25T16:03:46.050Z,98751.97
2022-08-25T16:06:12.698Z,98762.81
2022-08-25T16:08:39.690Z,98755.19
2022-08-25T16:11:18.765Z,98755.75
2022-08-25T16:13:45.947Z,98747.91
2022-08-25T16:16:13.260Z,98747.81
2022-08-25T16:18:39.922Z,98742.25
2022-08-25T16:21:12.415Z,98743.53
2022-08-25T16:23:40.133Z,98736.56
2022-08-25T16:26:09.117Z,98734.03
2022-08-25T16:28:37.326Z,98732.66
2022-08-25T16:31:07.097Z,98721.56
2022-08-25T16:33:35.256Z,98733.50
2022-08-25T16:36:07.507Z,98726.16
2022-08-25T16:38:36.015Z,98731.97
2022-08-25T16:41:10.426Z,98724.72
2022-08-25T16:43:37.263Z,98725.94
2022-08-25T16:46:06.698Z,98721.28
2022-08-25T16:48:33.483Z,98719.41
2022-08-25T16:51:00.160Z,98729.00
2022-08-25T16:53:46.123Z,98717.50
2022-08-25T16:56:15.786Z,98723.72
2022-08-25T16:58:43.022Z,98718.66
2022-08-25T17:01:13.076Z,98726.25
2022-08-25T17:03:44.151Z,98732.81
2022-08-25T17:06:12.051Z,98722.25
2022-08-25T17:08:40.690Z,98724.13
2022-08-25T17:11:10.426Z,98723.69
2022-08-25T17:13:38.272Z,98723.69
2022-08-25T17:16:05.703Z,98719.16
2022-08-25T17:18:33.044Z,98723.59
2022-08-25T17:21:01.302Z,98725.53
2022-08-25T17:23:30.606Z,98728.56
2022-08-25T17:25:57.297Z,98724.59
2022-08-25T17:28:24.905Z,98730.56
2022-08-25T17:30:52.300Z,98723.28
2022-08-25T17:33:21.109Z,98724.31
2022-08-25T17:35:52.241Z,98719.53
2022-08-25T17:38:20.980Z,98722.50
2022-08-25T17:40:48.220Z,98726.53
2022-08-25T17:43:15.103Z,98721.81
2022-08-25T17:45:42.422Z,98735.16
2022-08-25T17:48:10.156Z,98728.44
2022-08-25T17:50:37.528Z,98728.91
2022-08-25T17:53:05.679Z,98727.50
2022-08-25T17:55:32.220Z,98724.31
2022-08-25T17:57:58.770Z,98727.97
2022-08-25T18:00:25.526Z,98719.38
2022-08-25T18:02:52.082Z,98719.94
2022-08-25T18:05:18.825Z,98731.09
2022-08-25T18:07:47.483Z,98721.19
2022-08-25T18:10:17.185Z,98730.03
2022-08-25T18:12:44.297Z,98726.91
2022-08-25T18:15:12.588Z,98731.94
2022-08-25T18:17:40.884Z,98727.47
2022-08-25T18:20:08.847Z,98732.38
2022-08-25T18:22:36.234Z,98729.94
2022-08-25T18:25:06.686Z,98729.38
2022-08-25T18:27:33.876Z,98737.19
2022-08-25T18:30:00.882Z,98738.75
2022-08-25T18:32:27.860Z,98738.16
2022-08-25T18:34:56.412Z,98744.34
2022-08-25T18:37:42.516Z,98743.81
2022-08-25T18:40:25.118Z,98750.22
2022-08-25T18:42:57.662Z,98744.34
2022-08-25T18:45:26.147Z,98749.44
2022-08-25T18:47:56.302Z,98748.97
2022-08-25T18:50:24.333Z,98748.00
2022-08-25T18:52:51.092Z,98755.25
2022-08-25T18:55:22.088Z,98748.41
2022-08-25T18:57:48.688Z,98754.31
2022-08-25T19:00:19.049Z,98752.53
2022-08-25T19:02:49.687Z,98763.31
2022-08-25T19:05:16.736Z,98763.81
2022-08-25T19:07:43.988Z,98757.19
2022-08-25T19:10:13.001Z,98762.28
2022-08-25T19:12:41.105Z,98760.84
2022-08-25T19:15:08.982Z,98766.63
2022-08-25T19:17:37.487Z,98770.31
2022-08-25T19:20:05.377Z,98773.75
2022-08-25T19:22:41.913Z,98767.69
2022-08-25T19:25:09.838Z,98769.59
2022-08-25T19:27:36.375Z,98781.25
2022-08-25T19:30:05.355Z,98779.16
2022-08-25T19:32:32.643Z,98775.81
2022-08-25T19:34:59.115Z,98775.25
2022-08-25T19:37:26.932Z,98778.06
2022-08-25T19:39:54.865Z,98776.88
2022-08-25T19:42:34.934Z,98772.38
2022-08-25T19:45:07.000Z,98780.19
2022-08-25T19:47:33.441Z,98773.69
2022-08-25T19:49:59.999Z,98785.50
2022-08-25T19:52:26.882Z,98783.41
2022-08-25T19:54:55.219Z,98785.41
2022-08-25T19:57:28.310Z,98795.69
2022-08-25T20:00:14.483Z,98788.81
2022-08-25T20:02:41.901Z,98793.88
2022-08-25T20:05:08.485Z,98789.59
2022-08-25T20:07:35.564Z,98787.56
2022-08-25T20:10:02.756Z,98794.03
2022-08-25T20:12:29.777Z,98786.06
2022-08-25T20:14:57.003Z,98787.34
2022-08-25T20:17:26.285Z,98779.75
2022-08-25T20:19:56.186Z,98783.53
2022-08-25T20:22:26.257Z,98784.09
2022-08-25T20:24:56.076Z,98784.16
2022-08-25T20:27:26.055Z,98786.78
2022-08-25T20:29:52.952Z,98792.03
2022-08-25T20:32:20.011Z,98786.25
2022-08-25T20:34:46.942Z,98782.31
2022-08-25T20:37:13.464Z,98788.66
2022-08-25T20:39:40.852Z,98792.03
2022-08-25T20:42:07.708Z,98796.63
2022-08-25T20:44:41.918Z,98782.06
2022-08-25T20:47:10.382Z,98787.50
2022-08-25T20:49:39.229Z,98785.47
2022-08-25T20:52:06.177Z,98793.44
2022-08-25T20:54:33.331Z,98786.56
2022-08-25T20:56:59.767Z,98787.88
2022-08-25T20:59:27.122Z,98792.28
2022-08-25T21:01:56.576Z,98788.75
2022-08-25T21:04:24.089Z,98782.56
2022-08-25T21:06:51.030Z,98790.72
2022-08-25T21:09:19.862Z,98783.22
2022-08-25T21:11:46.782Z,98783.69
2022-08-25T21:14:14.465Z,98790.34
2022-08-25T21:16:46.435Z,98781.59
2022-08-25T21:19:14.865Z,98794.97
2022-08-25T21:21:42.809Z,98792.94
2022-08-25T21:27:31.177Z,98789.59
2022-08-25T21:29:57.881Z,98790.44
2022-08-25T21:32:24.703Z,98791.31
2022-08-25T21:34:52.564Z,98803.03
2022-08-25T21:37:20.369Z,98799.75
2022-08-25T21:39:47.094Z,98797.28
2022-08-25T21:42:13.897Z,98805.41
2022-08-25T21:44:40.671Z,98795.66
2022-08-25T21:47:07.410Z,98799.47
2022-08-25T21:49:37.547Z,98798.72
2022-08-25T21:52:04.612Z,98805.78
2022-08-25T21:54:31.796Z,98808.34
2022-08-25T21:57:00.352Z,98794.19
2022-08-25T21:59:31.599Z,98797.78
2022-08-25T22:01:59.605Z,98805.09
2022-08-25T22:04:26.824Z,98800.53
2022-08-25T22:06:54.287Z,98797.66
2022-08-25T22:09:21.020Z,98794.16
2022-08-25T22:11:47.880Z,98792.91
2022-08-25T22:14:15.383Z,98793.34
2022-08-25T22:16:42.773Z,98794.78
2022-08-25T22:19:10.697Z,98800.22
2022-08-25T22:21:37.484Z,98801.09
2022-08-25T22:24:05.657Z,98788.66
2022-08-25T22:26:32.937Z,98791.53
2022-08-25T22:29:00.843Z,98788.66
2022-08-25T22:31:28.130Z,98784.09
2022-08-25T22:33:55.852Z,98783.06
2022-08-25T22:36:35.218Z,98778.06
2022-08-25T22:39:02.591Z,98782.66
2022-08-25T22:41:30.233Z,98775.41
2022-08-25T22:43:57.683Z,98781.88
2022-08-25T22:46:25.480Z,98776.25
2022-08-25T22:48:54.877Z,98781.25
2022-08-25T22:51:23.481Z,98777.50
2022-08-25T22:53:50.900Z,98780.41
2022-08-25T22:56:19.047Z,98785.41
2022-08-25T22:58:51.754Z,98778.72
2022-08-25T23:01:19.632Z,98781.41
2022-08-25T23:03:47.578Z,98780.38
2022-08-25T23:06:19.758Z,98774.56
2022-08-25T23:08:49.693Z,98773.28
2022-08-25T23:11:17.150Z,98779.31
2022-08-25T23:13:44.685Z,98783.28
2022-08-25T23:16:11.762Z,98779.50
2022-08-25T23:18:43.482Z,98779.09
2022-08-25T23:21:30.155Z,98770.59
2022-08-25T23:24:02.151Z,98780.13
2022-08-25T23:26:29.231Z,98772.66
2022-08-25T23:28:56.005Z,98773.25
2022-08-25T23:31:22.698Z,98769.53
2022-08-25T23:33:51.121Z,98766.38
2022-08-25T23:36:18.044Z,98781.13
2022-08-25T23:38:45.667Z,98779.84
2022-08-25T23:41:19.823Z,98781.09
2022-08-25T23:43:48.907Z,98776.09
2022-08-25T23:46:16.943Z,98772.50
2022-08-25T23:48:43.693Z,98772.94
2022-08-25T23:51:10.344Z,98761.94
2022-08-25T23:53:37.090Z,98778.50
2022-08-25T23:56:05.681Z,98771.84
2022-08-25T23:58:32.464Z,98779.31
